Data for 12/13/2012

Time Sea-Level Adjusted Pressure Absolute Pressure Temperature Relative Humidity Dew Point   
(mb) (inHg) (mb) (inHg) (C) (F) (%) (C) (F)
00:05 1012 29.88 841 24.83 -2.6 27.4 87 -4.4 24.1
00:10 1012 29.88 841 24.83 -2.6 27.4 88 -4.3 24.2
00:15 1012 29.88 841 24.83 -2.6 27.4 88 -4.3 24.3
00:20 1012 29.88 841 24.83 -2.6 27.4 89 -4.2 24.5
00:25 1012 29.88 841 24.83 -2.5 27.4 90 -4 24.9
00:30 1012 29.88 841 24.83 -2.5 27.5 90 -3.9 25
00:35 1012 29.88 841 24.83 -2.4 27.7 91 -3.6 25.5
00:40 1012 29.88 841 24.83 -2.2 28 91 -3.4 25.8
00:45 1012 29.88 841 24.83 -2.2 28 92 -3.3 26
00:50 1012 29.88 841 24.83 -2.3 27.9 92 -3.3 26
00:55 1012 29.88 841 24.83 -2.5 27.5 93 -3.4 25.8
01:00 1012 29.88 841 24.83 -2.6 27.3 93 -3.6 25.5
01:05 1012 29.88 841 24.83 -2.9 26.8 94 -3.8 25.2
01:10 1012 29.88 841 24.83 -3 26.6 94 -3.8 25.1
01:15 1012 29.88 841 24.83 -3 26.6 95 -3.8 25.2
01:20 1012 29.88 841 24.83 -3 26.6 95 -3.8 25.2
01:25 1012 29.88 841 24.83 -3 26.7 95 -3.7 25.4
01:30 1012 29.88 841 24.83 -2.9 26.8 95 -3.6 25.5
01:35 1012 29.88 841 24.83 -2.8 27 94 -3.6 25.6
01:40 1012 29.88 841 24.83 -2.7 27.1 94 -3.6 25.6
01:45 1012 29.88 841 24.83 -2.8 27 94 -3.6 25.5
01:50 1012 29.88 841 24.83 -2.8 27 94 -3.6 25.5
01:55 1012 29.88 841 24.83 -2.6 27.3 93 -3.6 25.5
02:00 1012 29.88 841 24.83 -2.6 27.3 93 -3.7 25.4
02:05 1012 29.88 841 24.83 -2.8 27 93 -3.8 25.1
02:10 1012 29.88 841 24.83 -2.9 26.8 92 -3.9 24.9
02:15 1012 29.88 841 24.83 -3 26.6 92 -4.1 24.6
02:20 1012 29.88 841 24.83 -3.3 26.1 93 -4.3 24.3
02:25 1012 29.88 841 24.83 -3.3 26 93 -4.3 24.3
02:30 1012 29.88 841 24.83 -3.3 26 93 -4.3 24.2
02:35 1012 29.88 841 24.83 -3.4 25.8 92 -4.5 23.9
02:40 1012 29.88 841 24.83 -3.5 25.7 92 -4.6 23.7
02:45 1012 29.88 841 24.83 -3.6 25.5 92 -4.7 23.5
02:50 1012 29.88 841 24.83 -3.7 25.4 92 -4.8 23.3
02:55 1012 29.88 841 24.83 -3.6 25.5 92 -4.7 23.5
03:00 1012 29.88 841 24.83 -3.2 26.2 88 -4.9 23.1
03:05 1012 29.88 841 24.83 -3.3 26.1 88 -5 22.9
03:10 1012 29.88 841 24.83 -3.9 25.1 87 -5.7 21.8
03:15 1012 29.88 841 24.83 -4.1 24.7 87 -5.9 21.3
03:20 1012 29.88 841 24.83 -4.1 24.6 90 -5.6 22
03:25 1012 29.88 841 24.83 -3.9 24.9 87 -5.8 21.6
03:30 1012 29.88 841 24.83 -3.9 25 87 -5.8 21.6
03:35 1012 29.88 841 24.83 -3.9 25 86 -5.9 21.4
03:40 1012 29.88 841 24.83 -4 24.7 86 -6.1 21
03:45 1012 29.88 841 24.83 -4.1 24.6 86 -6.1 21
03:50 1012 29.88 841 24.83 -4.2 24.5 88 -5.8 21.5
03:55 1012 29.88 841 24.83 -4.4 24 90 -5.8 21.6
04:00 1012 29.88 841 24.83 -4.4 24.2 91 -5.6 21.9
04:05 1012 29.88 841 24.83 -4.2 24.5 89 -5.7 21.8
04:10 1012 29.88 842 24.86 -4.3 24.3 89 -5.9 21.4
04:15 1012 29.88 842 24.86 -4.3 24.3 90 -5.7 21.8
04:20 1012 29.88 842 24.86 -4.2 24.5 89 -5.8 21.6
04:25 1012 29.88 842 24.86 -4.4 24 86 -6.5 20.3
04:30 1013 29.91 842 24.86 -4.6 23.7 86 -6.7 19.9
04:35 1013 29.91 842 24.86 -4.8 23.3 85 -7 19.5
04:40 1013 29.91 842 24.86 -5.2 22.7 86 -7.1 19.2
04:45 1013 29.91 842 24.86 -5.4 22.3 87 -7.2 19
04:50 1013 29.91 842 24.86 -5.5 22.1 87 -7.4 18.7
04:55 1013 29.91 842 24.86 -5.7 21.8 88 -7.3 18.8
05:00 1013 29.91 842 24.86 -5.7 21.7 88 -7.5 18.5
05:05 1013 29.91 842 24.86 -5.9 21.5 87 -7.6 18.3
05:10 1012 29.88 842 24.86 -6.1 21 87 -7.9 17.7
05:15 1012 29.88 842 24.86 -6.2 20.9 88 -7.9 17.8
05:20 1012 29.88 842 24.86 -5.8 21.6 87 -7.7 18.2
05:25 1012 29.88 842 24.86 -5.6 22 86 -7.6 18.3
05:30 1012 29.88 842 24.86 -5.4 22.3 85 -7.5 18.5
05:35 1012 29.88 842 24.86 -5.6 22 86 -7.6 18.4
05:40 1013 29.91 842 24.86 -5.4 22.3 85 -7.6 18.4
05:45 1013 29.91 842 24.86 -5.1 22.7 84 -7.4 18.6
05:50 1013 29.91 842 24.86 -4.9 23.2 84 -7.2 19.1
05:55 1013 29.91 842 24.86 -5 23 85 -7.1 19.2
06:00 1013 29.91 842 24.86 -5.1 22.8 85 -7.2 19
06:05 1013 29.91 842 24.86 -5.1 22.9 84 -7.3 18.9
06:10 1013 29.91 842 24.86 -5 23 83 -7.5 18.5
06:15 1013 29.91 842 24.86 -5.1 22.9 84 -7.4 18.7
06:20 1013 29.91 842 24.86 -5.1 22.8 84 -7.4 18.7
06:25 1013 29.91 842 24.86 -5.2 22.7 84 -7.5 18.6
06:30 1013 29.91 842 24.86 -5.3 22.4 84 -7.7 18.2
06:35 1013 29.91 842 24.86 -5.6 21.9 85 -7.7 18.1
06:40 1013 29.91 842 24.86 -5.8 21.5 85 -7.9 17.7
06:45 1013 29.91 842 24.86 -6.1 21 86 -8 17.6
06:50 1013 29.91 842 24.86 -6.3 20.7 86 -8.3 17.1
06:55 1013 29.91 842 24.86 -6.4 20.5 86 -8.4 16.9
07:00 1013 29.91 842 24.86 -6.4 20.4 86 -8.4 16.8
07:05 1013 29.91 842 24.86 -6.5 20.3 86 -8.4 16.8
07:10 1013 29.91 842 24.86 -6.6 20.2 87 -8.4 16.9
07:15 1013 29.91 842 24.86 -6.6 20.1 88 -8.3 17
07:20 1013 29.91 842 24.86 -6.7 19.9 87 -8.5 16.7
07:25 1013 29.91 842 24.86 -6.8 19.8 87 -8.6 16.5
07:30 1013 29.91 842 24.86 -6.8 19.7 87 -8.7 16.4
07:35 1013 29.91 842 24.86 -6.8 19.7 87 -8.7 16.3
07:40 1013 29.91 842 24.86 -6.9 19.5 86 -8.9 16
07:45 1013 29.91 842 24.86 -7 19.3 87 -8.8 16.2
07:50 1013 29.91 842 24.86 -6.8 19.8 86 -8.8 16.1
07:55 1013 29.91 842 24.86 -6.8 19.7 85 -8.9 15.9
08:00 1013 29.91 842 24.86 -7.3 18.9 86 -9.3 15.3
08:05 1013 29.91 842 24.86 -7.2 19 88 -9 15.9
08:10 1013 29.91 842 24.86 -6.7 19.9 86 -8.7 16.4
08:15 1013 29.91 842 24.86 -6.7 19.9 86 -8.6 16.4
08:20 1013 29.91 842 24.86 -6.8 19.8 85 -8.9 16
08:25 1013 29.91 842 24.86 -7.1 19.3 88 -8.7 16.3
08:30 1013 29.91 842 24.86 -7.1 19.1 89 -8.6 16.5
08:35 1013 29.91 842 24.86 -7.1 19.3 89 -8.6 16.5
08:40 1013 29.91 842 24.86 -6.9 19.5 89 -8.5 16.7
08:45 1013 29.91 842 24.86 -6.8 19.7 89 -8.4 16.9
08:50 1013 29.91 843 24.89 -6.7 19.9 89 -8.2 17.2
08:55 1013 29.91 842 24.86 -6.1 21 86 -8.1 17.4
09:00 1013 29.91 842 24.86 -6 21.2 86 -8 17.6
09:05 1013 29.91 842 24.86 -6.3 20.7 86 -8.2 17.2
09:10 1013 29.91 842 24.86 -6.6 20.1 86 -8.6 16.5
09:15 1013 29.91 842 24.86 -6.9 19.6 86 -8.9 16
09:20 1013 29.91 842 24.86 -7.3 18.8 87 -9.2 15.4
09:25 1013 29.91 842 24.86 -7.4 18.6 87 -9.3 15.3
09:30 1013 29.91 842 24.86 -7.1 19.3 87 -8.9 16
09:35 1013 29.91 842 24.86 -6.6 20.1 84 -8.8 16.1
09:40 1013 29.91 843 24.89 -6.6 20.1 84 -8.9 16
09:45 1013 29.91 843 24.89 -6.8 19.8 85 -8.9 16
09:50 1013 29.91 843 24.89 -6.3 20.6 85 -8.5 16.6
09:55 1014 29.94 843 24.89 -6 21.2 83 -8.4 16.9
10:00 1014 29.94 843 24.89 -6.1 21.1 83 -8.5 16.8
10:05 1014 29.94 843 24.89 -6.2 20.8 83 -8.7 16.3
10:10 1014 29.94 843 24.89 -6 21.1 83 -8.5 16.7
10:15 1014 29.94 843 24.89 -5.8 21.5 83 -8.3 17.1
10:20 1014 29.94 843 24.89 -5.8 21.6 81 -8.5 16.8
10:25 1014 29.94 843 24.89 -5.8 21.5 83 -8.3 17
10:30 1014 29.94 843 24.89 -5.9 21.4 83 -8.3 17
10:35 1014 29.94 843 24.89 -5.7 21.7 83 -8.2 17.3
10:40 1014 29.94 843 24.89 -5.7 21.8 84 -7.9 17.7
10:45 1014 29.94 843 24.89 -5.3 22.4 83 -7.8 17.9
10:50 1014 29.94 843 24.89 -5 23 80 -7.8 17.9
10:55 1014 29.94 843 24.89 -4.7 23.5 81 -7.5 18.5
11:00 1014 29.94 843 24.89 -4.4 24 79 -7.6 18.3
11:05 1014 29.94 843 24.89 -4.6 23.7 79 -7.7 18.1
11:10 1014 29.94 843 24.89 -4.4 24.1 78 -7.7 18.2
11:15 1014 29.94 843 24.89 -4.2 24.4 77 -7.7 18.1
11:20 1014 29.94 843 24.89 -3.9 24.9 79 -7.1 19.2
11:25 1014 29.94 843 24.89 -3.3 26.1 76 -6.9 19.6
11:30 1014 29.94 843 24.89 -2.7 27.1 74 -6.7 20
11:35 1014 29.94 843 24.89 -1.9 28.5 72 -6.3 20.6
11:40 1014 29.94 843 24.89 -1.2 29.9 69 -6 21.1
11:45 1014 29.94 843 24.89 -0.7 30.7 66 -6.3 20.7
11:50 1014 29.94 843 24.89 -0.3 31.5 64 -6.3 20.7
11:55 1014 29.94 843 24.89 -0.5 31.2 66 -6.1 21.1
12:00 1014 29.94 843 24.89 0.3 32.5 64 -5.8 21.5
12:05 1014 29.94 843 24.89 0.5 33 63 -5.7 21.7
12:10 1014 29.94 843 24.89 0.5 32.8 64 -5.7 21.8
12:15 1014 29.94 843 24.89 1.2 34.2 62 -5.2 22.6
12:20 1014 29.94 843 24.89 1.3 34.4 63 -5 23
12:25 1014 29.94 843 24.89 1.7 35.1 61 -5 23.1
12:30 1014 29.94 843 24.89 2.3 36.2 59 -4.8 23.4
12:35 1014 29.94 843 24.89 2.5 36.5 60 -4.4 24.1
12:40 1013 29.91 843 24.89 2.9 37.1 58 -4.5 23.9
12:45 1013 29.91 843 24.89 2.9 37.3 58 -4.6 23.7
12:50 1013 29.91 842 24.86 2.9 37.3 57 -4.7 23.6
12:55 1013 29.91 842 24.86 3.6 38.5 54 -4.9 23.2
13:00 1013 29.91 842 24.86 3.8 38.8 53 -5 23.1
13:05 1013 29.91 842 24.86 2.8 37 58 -4.7 23.5
13:10 1013 29.91 842 24.86 2.5 36.5 57 -5.1 22.8
13:15 1013 29.91 842 24.86 2.5 36.4 59 -4.8 23.3
13:20 1013 29.91 842 24.86 2.7 36.9 56 -5.2 22.6
13:25 1013 29.91 842 24.86 3.8 38.8 53 -4.9 23.1
13:30 1013 29.91 842 24.86 4.1 39.5 52 -4.8 23.4
13:35 1013 29.91 842 24.86 4.3 39.8 50 -5.2 22.7
13:40 1013 29.91 842 24.86 3.9 39 51 -5.2 22.6
13:45 1013 29.91 842 24.86 3.2 37.8 52 -5.6 21.9
13:50 1013 29.91 842 24.86 2.6 36.6 52 -6.3 20.6
13:55 1013 29.91 842 24.86 2.8 37 57 -5 23
14:00 1013 29.91 842 24.86 3.3 38 57 -4.3 24.2
14:05 1012 29.88 842 24.86 3.4 38.1 60 -3.5 25.7
14:10 1012 29.88 842 24.86 2.8 37 60 -4.3 24.3
14:15 1012 29.88 842 24.86 2.9 37.2 56 -5 23
14:20 1012 29.88 842 24.86 2.6 36.7 57 -5 23.1
14:25 1012 29.88 841 24.83 2.7 36.9 59 -4.6 23.7
14:30 1012 29.88 841 24.83 2.9 37.2 58 -4.6 23.8
14:35 1012 29.88 841 24.83 2.9 37.2 58 -4.5 23.9
14:40 1012 29.88 841 24.83 2.7 36.8 59 -4.4 24
14:45 1012 29.88 841 24.83 2.7 36.9 54 -5.7 21.7
14:50 1012 29.88 841 24.83 2.8 37 52 -6.1 21
14:55 1012 29.88 841 24.83 3.1 37.6 51 -6 21.2
15:00 1012 29.88 841 24.83 2.8 37.1 53 -5.9 21.4
15:05 1012 29.88 841 24.83 2.8 37 51 -6.4 20.5
15:10 1012 29.88 841 24.83 2.7 36.9 50 -6.6 20.2
15:15 1012 29.88 841 24.83 2.6 36.6 50 -6.8 19.8
15:20 1012 29.88 841 24.83 2.5 36.6 53 -6.1 21
15:25 1012 29.88 841 24.83 2.8 37.1 51 -6.4 20.5
15:30 1012 29.88 841 24.83 2.3 36.1 53 -6.5 20.4
15:35 1012 29.88 841 24.83 1.8 35.2 65 -4 24.8
15:40 1012 29.88 841 24.83 1.5 34.6 68 -3.7 25.3
15:45 1012 29.88 841 24.83 1.1 33.9 69 -4.1 24.7
15:50 1012 29.88 841 24.83 1.4 34.5 67 -4.1 24.7
15:55 1012 29.88 841 24.83 0.8 33.5 70 -4 24.8
16:00 1011 29.85 841 24.83 1.3 34.4 66 -4.3 24.3
16:05 1011 29.85 841 24.83 1.7 35.1 63 -4.5 23.8
16:10 1011 29.85 841 24.83 1.7 35.1 65 -4.2 24.4
16:15 1011 29.85 841 24.83 1 33.7 67 -4.5 23.9
16:20 1011 29.85 841 24.83 0.3 32.6 69 -4.6 23.6
16:25 1011 29.85 841 24.83 0.4 32.7 71 -4.3 24.2
16:30 1011 29.85 841 24.83 0.9 33.7 67 -4.5 23.9
16:35 1011 29.85 841 24.83 0.7 33.3 70 -4 24.7
16:40 1011 29.85 841 24.83 0.1 32.2 73 -4.1 24.6
16:45 1011 29.85 841 24.83 -0 31.9 73 -4.3 24.3
16:50 1011 29.85 840 24.81 0.2 32.3 71 -4.6 23.8
16:55 1011 29.85 840 24.81 0.5 33 68 -4.7 23.5
17:00 1011 29.85 840 24.81 0.5 33 70 -4.4 24.1
17:05 1011 29.85 840 24.81 0.4 32.8 67 -4.9 23.1
17:10 1011 29.85 840 24.81 0 32 70 -4.8 23.3
17:15 1011 29.85 840 24.81 -0.5 31 72 -4.9 23.1
17:20 1011 29.85 840 24.81 -0.8 30.5 73 -5.1 22.8
17:25 1011 29.85 840 24.81 -1.8 28.8 75 -5.7 21.8
17:30 1011 29.85 840 24.81 -1.9 28.5 75 -5.9 21.5
17:35 1011 29.85 840 24.81 -1.9 28.6 73 -6.1 21
17:40 1011 29.85 840 24.81 -2.1 28.2 77 -5.7 21.8
17:45 1011 29.85 840 24.81 -2.2 28 77 -5.8 21.6
17:50 1011 29.85 840 24.81 -2.4 27.7 79 -5.5 22
17:55 1011 29.85 840 24.81 -2.7 27.2 81 -5.5 22.1
18:00 1011 29.85 840 24.81 -3 26.7 81 -5.7 21.7
18:05 1011 29.85 840 24.81 -3.2 26.2 81 -6.1 21
18:10 1011 29.85 840 24.81 -3.3 26 82 -6 21.3
18:15 1011 29.85 840 24.81 -3.5 25.6 83 -6 21.3
18:20 1011 29.85 840 24.81 -3.6 25.6 82 -6.2 20.9
18:25 1011 29.85 840 24.81 -3.6 25.5 82 -6.3 20.7
18:30 1011 29.85 840 24.81 -3.7 25.3 81 -6.4 20.4
18:35 1011 29.85 840 24.81 -3.6 25.4 82 -6.2 20.8
18:40 1011 29.85 840 24.81 -3.8 25.1 84 -6.2 20.9
18:45 1011 29.85 840 24.81 -4 24.9 81 -6.8 19.7
18:50 1011 29.85 840 24.81 -4.1 24.6 83 -6.6 20.1
18:55 1011 29.85 840 24.81 -4.3 24.3 82 -6.9 19.5
19:00 1011 29.85 840 24.81 -4.5 23.9 81 -7.3 18.8
19:05 1011 29.85 840 24.81 -4.7 23.6 81 -7.5 18.5
19:10 1011 29.85 840 24.81 -4.8 23.4 83 -7.3 18.9
19:15 1011 29.85 840 24.81 -5 23 82 -7.6 18.4
19:20 1011 29.85 840 24.81 -5.1 22.9 82 -7.7 18.2
19:25 1011 29.85 840 24.81 -4.9 23.2 79 -8 17.7
19:30 1011 29.85 840 24.81 -4.6 23.8 79 -7.6 18.2
19:35 1011 29.85 840 24.81 -4.5 23.9 79 -7.6 18.4
19:40 1011 29.85 840 24.81 -4.7 23.5 81 -7.6 18.3
19:45 1011 29.85 840 24.81 -4.7 23.5 79 -7.7 18.1
19:50 1011 29.85 840 24.81 -4.6 23.7 80 -7.5 18.5
19:55 1011 29.85 840 24.81 -4.6 23.7 80 -7.5 18.5
20:00 1011 29.85 840 24.81 -4.8 23.4 81 -7.6 18.4
20:05 1011 29.85 840 24.81 -5 23.1 81 -7.7 18.2
20:10 1011 29.85 840 24.81 -5 22.9 84 -7.4 18.7
20:15 1011 29.85 840 24.81 -4.9 23.2 82 -7.5 18.6
20:20 1011 29.85 840 24.81 -5 23.1 81 -7.7 18.1
20:25 1011 29.85 840 24.81 -4.9 23.2 80 -7.8 18
20:30 1011 29.85 840 24.81 -4.4 24.1 81 -7.2 19
20:35 1011 29.85 840 24.81 -4.3 24.2 81 -7.2 19.1
20:40 1011 29.85 840 24.81 -5 23 83 -7.5 18.5
20:45 1011 29.85 840 24.81 -4.7 23.5 79 -7.9 17.8
20:50 1011 29.85 840 24.81 -4.6 23.7 79 -7.7 18.1
20:55 1011 29.85 840 24.81 -5 23 80 -7.9 17.7
21:00 1011 29.85 840 24.81 -5.2 22.6 80 -8.2 17.3
21:05 1011 29.85 840 24.81 -5.5 22.2 82 -8.1 17.3
21:10 1011 29.85 840 24.81 -5.7 21.7 83 -8.2 17.2
21:15 1011 29.85 840 24.81 -5.7 21.7 82 -8.4 16.9
21:20 1011 29.85 840 24.81 -5.9 21.4 84 -8.1 17.3
21:25 1011 29.85 840 24.81 -5.8 21.5 83 -8.2 17.2
21:30 1011 29.85 840 24.81 -5.6 22 84 -7.8 18
21:35 1010 29.83 840 24.81 -5.3 22.4 84 -7.7 18.2
21:40 1010 29.83 840 24.81 -5.1 22.8 83 -7.6 18.3
21:45 1010 29.83 840 24.81 -5 22.9 82 -7.6 18.2
21:50 1010 29.83 840 24.81 -5 22.9 81 -7.8 17.9
21:55 1010 29.83 840 24.81 -5.4 22.3 82 -8 17.5
22:00 1010 29.83 840 24.81 -5.7 21.7 83 -8.2 17.2
22:05 1010 29.83 840 24.81 -6 21.1 84 -8.4 16.9
22:10 1010 29.83 840 24.81 -6.1 21.1 83 -8.5 16.7
22:15 1011 29.85 840 24.81 -5.9 21.4 83 -8.3 17.1
22:20 1010 29.83 840 24.81 -5.6 21.8 82 -8.2 17.2
22:25 1010 29.83 840 24.81 -5.5 22.1 83 -7.9 17.8
22:30 1010 29.83 840 24.81 -5 23 80 -8 17.6
22:35 1010 29.83 840 24.81 -5.5 22 85 -7.7 18.1
22:40 1010 29.83 840 24.81 -5.3 22.5 83 -7.7 18.1
22:45 1010 29.83 840 24.81 -5.2 22.6 82 -7.9 17.9
22:50 1010 29.83 840 24.81 -5.7 21.8 83 -8.2 17.3
22:55 1010 29.83 840 24.81 -6 21.2 88 -7.7 18.1
23:00 1010 29.83 840 24.81 -5.7 21.8 85 -7.8 17.9
23:05 1010 29.83 840 24.81 -5.4 22.3 83 -7.8 17.9
23:10 1010 29.83 840 24.81 -5.2 22.6 82 -7.8 17.9
23:15 1010 29.83 840 24.81 -5.3 22.5 81 -8 17.6
23:20 1010 29.83 840 24.81 -5.6 22 81 -8.2 17.2
23:25 1010 29.83 840 24.81 -5.6 22 83 -8 17.6
23:30 1010 29.83 840 24.81 -5.1 22.7 83 -7.6 18.4
23:35 1010 29.83 840 24.81 -5.2 22.7 83 -7.6 18.4
23:40 1010 29.83 839 24.78 -5.2 22.7 83 -7.7 18.2
23:45 1010 29.83 839 24.78 -5.3 22.4 83 -7.8 17.9
23:50 1010 29.83 839 24.78 -5.6 21.9 83 -8 17.5
23:55 1010 29.83 839 24.78 -5.9 21.3 85 -8.1 17.5
24:00 1010 29.83 839 24.78 -5.8 21.5 85 -8 17.6